Terminal Aerodrome Forecast
Issued by NWS Topeka, KS

Home | Current Version | Previous Version | Text Only | Print | Product List | Glossary On
Versions: 1 2 3 4 5 6 7 8 9 10 11 12 13 14 15 16 17 18
000
FTUS43 KTOP 010500
TAFTOP
TAF
KTOP 010526Z 0106/0206 12006KT 1 1/2SM -RASN BR OVC007
     FM011200 31013G26KT 4SM -SN BR OVC007
     FM011800 32023G33KT 5SM -SN BR OVC009
     FM012200 32022G32KT P6SM OVC012
     FM020100 33016G22KT P6SM OVC015=

USA.gov is the U.S. government's official web portal to all federal, state and local government web resources and services.